sensor_id;sensor_type;location;lat;lon;timestamp;pressure;altitude;pressure_sealevel;temperature
79053;BMP280;68451;49.510;6.026;2024-02-26T00:01:44;95875.97;;;5.35
79053;BMP280;68451;49.510;6.026;2024-02-26T00:03:45;95875.34;;;5.28
79053;BMP280;68451;49.510;6.026;2024-02-26T00:05:49;95880.00;;;5.26
79053;BMP280;68451;49.510;6.026;2024-02-26T00:07:51;95874.81;;;5.26
79053;BMP280;68451;49.510;6.026;2024-02-26T00:09:53;95876.06;;;5.24
79053;BMP280;68451;49.510;6.026;2024-02-26T00:11:54;95877.34;;;5.21
79053;BMP280;68451;49.510;6.026;2024-02-26T00:13:57;95878.84;;;5.17
79053;BMP280;68451;49.510;6.026;2024-02-26T00:15:59;95861.66;;;5.11
79053;BMP280;68451;49.510;6.026;2024-02-26T00:18:01;95862.16;;;5.08
79053;BMP280;68451;49.510;6.026;2024-02-26T00:20:03;95869.44;;;5.11
79053;BMP280;68451;49.510;6.026;2024-02-26T00:22:10;95853.69;;;5.13
79053;BMP280;68451;49.510;6.026;2024-02-26T00:24:11;95856.34;;;5.18
79053;BMP280;68451;49.510;6.026;2024-02-26T00:26:13;95856.66;;;5.21
79053;BMP280;68451;49.510;6.026;2024-02-26T00:28:16;95858.19;;;5.22
79053;BMP280;68451;49.510;6.026;2024-02-26T00:30:18;95851.00;;;5.24
79053;BMP280;68451;49.510;6.026;2024-02-26T00:32:20;95848.16;;;5.26
79053;BMP280;68451;49.510;6.026;2024-02-26T00:34:21;95848.69;;;5.28
79053;BMP280;68451;49.510;6.026;2024-02-26T00:36:23;95862.41;;;5.28
79053;BMP280;68451;49.510;6.026;2024-02-26T00:38:25;95844.53;;;5.27
79053;BMP280;68451;49.510;6.026;2024-02-26T00:40:27;95849.25;;;5.30
79053;BMP280;68451;49.510;6.026;2024-02-26T00:42:29;95855.16;;;5.25
79053;BMP280;68451;49.510;6.026;2024-02-26T00:44:30;95859.31;;;5.26
79053;BMP280;68451;49.510;6.026;2024-02-26T00:46:32;95862.66;;;5.27
79053;BMP280;68451;49.510;6.026;2024-02-26T00:48:34;95856.16;;;5.24
79053;BMP280;68451;49.510;6.026;2024-02-26T00:50:36;95858.16;;;5.17
79053;BMP280;68451;49.510;6.026;2024-02-26T00:52:37;95853.50;;;5.19
79053;BMP280;68451;49.510;6.026;2024-02-26T00:54:39;95874.69;;;5.16
79053;BMP280;68451;49.510;6.026;2024-02-26T00:56:41;95852.91;;;5.12
79053;BMP280;68451;49.510;6.026;2024-02-26T00:58:42;95854.41;;;5.08
79053;BMP280;68451;49.510;6.026;2024-02-26T01:00:44;95837.00;;;5.04
79053;BMP280;68451;49.510;6.026;2024-02-26T01:02:46;95846.00;;;5.01
79053;BMP280;68451;49.510;6.026;2024-02-26T01:04:48;95842.97;;;5.04
79053;BMP280;68451;49.510;6.026;2024-02-26T01:06:50;95847.16;;;5.10
79053;BMP280;68451;49.510;6.026;2024-02-26T01:08:51;95841.69;;;5.07
79053;BMP280;68451;49.510;6.026;2024-02-26T01:10:53;95832.63;;;5.04
79053;BMP280;68451;49.510;6.026;2024-02-26T01:12:55;95830.03;;;5.04
79053;BMP280;68451;49.510;6.026;2024-02-26T01:14:56;95836.94;;;4.99
79053;BMP280;68451;49.510;6.026;2024-02-26T01:16:58;95848.00;;;4.94
79053;BMP280;68451;49.510;6.026;2024-02-26T01:19:00;95838.34;;;4.89
79053;BMP280;68451;49.510;6.026;2024-02-26T01:21:02;95824.88;;;4.87
79053;BMP280;68451;49.510;6.026;2024-02-26T01:23:06;95850.50;;;4.89
79053;BMP280;68451;49.510;6.026;2024-02-26T01:25:07;95837.78;;;4.87
79053;BMP280;68451;49.510;6.026;2024-02-26T01:27:10;95848.63;;;4.84
79053;BMP280;68451;49.510;6.026;2024-02-26T01:29:12;95839.78;;;4.80
79053;BMP280;68451;49.510;6.026;2024-02-26T01:31:14;95828.16;;;4.83
79053;BMP280;68451;49.510;6.026;2024-02-26T01:33:16;95834.38;;;4.82
79053;BMP280;68451;49.510;6.026;2024-02-26T01:35:18;95832.25;;;4.79
79053;BMP280;68451;49.510;6.026;2024-02-26T01:37:20;95840.78;;;4.79
79053;BMP280;68451;49.510;6.026;2024-02-26T01:39:22;95843.69;;;4.83
79053;BMP280;68451;49.510;6.026;2024-02-26T01:41:24;95839.84;;;4.85
79053;BMP280;68451;49.510;6.026;2024-02-26T01:43:26;95832.88;;;4.86
79053;BMP280;68451;49.510;6.026;2024-02-26T01:45:28;95826.44;;;4.88
79053;BMP280;68451;49.510;6.026;2024-02-26T01:47:30;95827.00;;;4.90
79053;BMP280;68451;49.510;6.026;2024-02-26T01:49:31;95837.78;;;4.87
79053;BMP280;68451;49.510;6.026;2024-02-26T01:51:33;95831.91;;;4.92
79053;BMP280;68451;49.510;6.026;2024-02-26T01:53:36;95821.34;;;4.93
79053;BMP280;68451;49.510;6.026;2024-02-26T01:55:38;95816.41;;;4.92
79053;BMP280;68451;49.510;6.026;2024-02-26T01:57:43;95824.72;;;4.94
79053;BMP280;68451;49.510;6.026;2024-02-26T01:59:46;95821.13;;;4.95
79053;BMP280;68451;49.510;6.026;2024-02-26T02:01:48;95820.09;;;4.96
79053;BMP280;68451;49.510;6.026;2024-02-26T02:03:52;95814.91;;;4.96
79053;BMP280;68451;49.510;6.026;2024-02-26T02:05:54;95807.22;;;5.01
79053;BMP280;68451;49.510;6.026;2024-02-26T02:07:56;95805.72;;;5.05
79053;BMP280;68451;49.510;6.026;2024-02-26T02:09:58;95807.13;;;5.13
79053;BMP280;68451;49.510;6.026;2024-02-26T02:12:00;95798.66;;;5.17
79053;BMP280;68451;49.510;6.026;2024-02-26T02:14:02;95804.84;;;5.16
79053;BMP280;68451;49.510;6.026;2024-02-26T02:16:04;95806.44;;;5.17
79053;BMP280;68451;49.510;6.026;2024-02-26T02:18:06;95810.09;;;5.21
79053;BMP280;68451;49.510;6.026;2024-02-26T02:20:08;95802.63;;;5.25
79053;BMP280;68451;49.510;6.026;2024-02-26T02:22:10;95795.94;;;5.29
79053;BMP280;68451;49.510;6.026;2024-02-26T02:24:12;95800.34;;;5.28
79053;BMP280;68451;49.510;6.026;2024-02-26T02:26:14;95800.34;;;5.28
79053;BMP280;68451;49.510;6.026;2024-02-26T02:28:16;95812.75;;;5.26
79053;BMP280;68451;49.510;6.026;2024-02-26T02:30:17;95800.91;;;5.30
79053;BMP280;68451;49.510;6.026;2024-02-26T02:32:19;95805.03;;;5.31
79053;BMP280;68451;49.510;6.026;2024-02-26T02:34:21;95804.63;;;5.39
79053;BMP280;68451;49.510;6.026;2024-02-26T02:36:23;95794.75;;;5.36
79053;BMP280;68451;49.510;6.026;2024-02-26T02:38:25;95796.06;;;5.39
79053;BMP280;68451;49.510;6.026;2024-02-26T02:40:27;95802.28;;;5.38
79053;BMP280;68451;49.510;6.026;2024-02-26T02:42:29;95805.16;;;5.41
79053;BMP280;68451;49.510;6.026;2024-02-26T02:44:30;95806.44;;;5.39
79053;BMP280;68451;49.510;6.026;2024-02-26T02:46:32;95810.88;;;5.44
79053;BMP280;68451;49.510;6.026;2024-02-26T02:51:02;95809.38;;;5.48
79053;BMP280;68451;49.510;6.026;2024-02-26T02:53:03;95814.06;;;5.51
79053;BMP280;68451;49.510;6.026;2024-02-26T02:55:05;95816.41;;;5.52
79053;BMP280;68451;49.510;6.026;2024-02-26T02:57:10;95811.53;;;5.56
79053;BMP280;68451;49.510;6.026;2024-02-26T02:59:12;95810.97;;;5.54
79053;BMP280;68451;49.510;6.026;2024-02-26T03:01:13;95813.63;;;5.59
79053;BMP280;68451;49.510;6.026;2024-02-26T03:03:15;95815.75;;;5.62
79053;BMP280;68451;49.510;6.026;2024-02-26T03:05:17;95822.47;;;5.63
79053;BMP280;68451;49.510;6.026;2024-02-26T03:07:19;95814.47;;;5.64
79053;BMP280;68451;49.510;6.026;2024-02-26T03:09:20;95814.19;;;5.61
79053;BMP280;68451;49.510;6.026;2024-02-26T03:11:22;95809.06;;;5.66
79053;BMP280;68451;49.510;6.026;2024-02-26T03:13:24;95812.19;;;5.68
79053;BMP280;68451;49.510;6.026;2024-02-26T03:15:25;95805.50;;;5.72
79053;BMP280;68451;49.510;6.026;2024-02-26T03:17:28;95810.19;;;5.75
79053;BMP280;68451;49.510;6.026;2024-02-26T03:19:29;95815.66;;;5.78
79053;BMP280;68451;49.510;6.026;2024-02-26T03:21:31;95812.53;;;5.76
79053;BMP280;68451;49.510;6.026;2024-02-26T03:23:33;95822.16;;;5.81
79053;BMP280;68451;49.510;6.026;2024-02-26T03:25:38;95827.88;;;5.83
79053;BMP280;68451;49.510;6.026;2024-02-26T03:27:39;95822.22;;;5.86
79053;BMP280;68451;49.510;6.026;2024-02-26T03:29:41;95817.34;;;5.90
79053;BMP280;68451;49.510;6.026;2024-02-26T03:31:43;95819.19;;;5.89
79053;BMP280;68451;49.510;6.026;2024-02-26T03:33:45;95817.13;;;5.91
79053;BMP280;68451;49.510;6.026;2024-02-26T03:35:47;95822.28;;;5.91
79053;BMP280;68451;49.510;6.026;2024-02-26T03:37:48;95816.63;;;5.94
79053;BMP280;68451;49.510;6.026;2024-02-26T03:39:52;95821.38;;;6.02
79053;BMP280;68451;49.510;6.026;2024-02-26T03:41:53;95824.50;;;6.04
79053;BMP280;68451;49.510;6.026;2024-02-26T03:43:55;95835.41;;;6.06
79053;BMP280;68451;49.510;6.026;2024-02-26T03:45:57;95826.84;;;6.06
79053;BMP280;68451;49.510;6.026;2024-02-26T03:47:59;95834.63;;;6.06
79053;BMP280;68451;49.510;6.026;2024-02-26T03:50:01;95842.91;;;6.08
79053;BMP280;68451;49.510;6.026;2024-02-26T03:52:03;95831.53;;;6.09
79053;BMP280;68451;49.510;6.026;2024-02-26T03:54:05;95832.88;;;6.11
79053;BMP280;68451;49.510;6.026;2024-02-26T03:56:06;95831.28;;;6.10
79053;BMP280;68451;49.510;6.026;2024-02-26T03:58:08;95827.13;;;6.09
79053;BMP280;68451;49.510;6.026;2024-02-26T04:00:10;95827.97;;;6.15
79053;BMP280;68451;49.510;6.026;2024-02-26T04:02:12;95822.78;;;6.15
79053;BMP280;68451;49.510;6.026;2024-02-26T04:04:14;95826.13;;;6.10
79053;BMP280;68451;49.510;6.026;2024-02-26T04:06:16;95826.34;;;6.09
79053;BMP280;68451;49.510;6.026;2024-02-26T04:08:21;95835.19;;;6.13
79053;BMP280;68451;49.510;6.026;2024-02-26T04:10:22;95828.25;;;6.18
79053;BMP280;68451;49.510;6.026;2024-02-26T04:12:24;95834.47;;;6.17
79053;BMP280;68451;49.510;6.026;2024-02-26T04:14:26;95831.09;;;6.17
79053;BMP280;68451;49.510;6.026;2024-02-26T04:16:28;95829.22;;;6.12
79053;BMP280;68451;49.510;6.026;2024-02-26T04:18:29;95830.06;;;6.18
79053;BMP280;68451;49.510;6.026;2024-02-26T04:20:31;95839.16;;;6.20
79053;BMP280;68451;49.510;6.026;2024-02-26T04:22:33;95832.94;;;6.21
79053;BMP280;68451;49.510;6.026;2024-02-26T04:24:35;95833.69;;;6.17
79053;BMP280;68451;49.510;6.026;2024-02-26T04:26:37;95838.06;;;6.16
79053;BMP280;68451;49.510;6.026;2024-02-26T04:28:39;95838.34;;;6.15
79053;BMP280;68451;49.510;6.026;2024-02-26T04:30:41;95841.72;;;6.15
79053;BMP280;68451;49.510;6.026;2024-02-26T04:32:42;95849.22;;;6.17
79053;BMP280;68451;49.510;6.026;2024-02-26T04:34:44;95851.34;;;6.20
79053;BMP280;68451;49.510;6.026;2024-02-26T04:36:46;95852.34;;;6.19
79053;BMP280;68451;49.510;6.026;2024-02-26T04:38:49;95852.13;;;6.20
79053;BMP280;68451;49.510;6.026;2024-02-26T04:40:51;95852.66;;;6.22
79053;BMP280;68451;49.510;6.026;2024-02-26T04:42:52;95858.38;;;6.24
79053;BMP280;68451;49.510;6.026;2024-02-26T04:44:54;95857.03;;;6.22
79053;BMP280;68451;49.510;6.026;2024-02-26T04:46:56;95857.81;;;6.22
79053;BMP280;68451;49.510;6.026;2024-02-26T04:48:58;95858.63;;;6.23
79053;BMP280;68451;49.510;6.026;2024-02-26T04:51:00;95851.88;;;6.22
79053;BMP280;68451;49.510;6.026;2024-02-26T04:53:02;95853.16;;;6.19
79053;BMP280;68451;49.510;6.026;2024-02-26T04:55:04;95853.94;;;6.20
79053;BMP280;68451;49.510;6.026;2024-02-26T04:57:06;95857.25;;;6.15
79053;BMP280;68451;49.510;6.026;2024-02-26T04:59:08;95855.19;;;6.17
79053;BMP280;68451;49.510;6.026;2024-02-26T05:03:21;95860.88;;;6.14
79053;BMP280;68451;49.510;6.026;2024-02-26T05:05:24;95859.06;;;6.15
79053;BMP280;68451;49.510;6.026;2024-02-26T05:07:26;95852.59;;;6.17
79053;BMP280;68451;49.510;6.026;2024-02-26T05:09:28;95858.84;;;6.21
79053;BMP280;68451;49.510;6.026;2024-02-26T05:11:29;95854.16;;;6.18
79053;BMP280;68451;49.510;6.026;2024-02-26T05:13:31;95861.16;;;6.18
79053;BMP280;68451;49.510;6.026;2024-02-26T05:15:33;95856.75;;;6.18
79053;BMP280;68451;49.510;6.026;2024-02-26T05:17:35;95859.84;;;6.15
79053;BMP280;68451;49.510;6.026;2024-02-26T05:19:37;95859.84;;;6.15
79053;BMP280;68451;49.510;6.026;2024-02-26T05:21:39;95864.53;;;6.18
79053;BMP280;68451;49.510;6.026;2024-02-26T05:23:41;95867.16;;;6.23
79053;BMP280;68451;49.510;6.026;2024-02-26T05:25:45;95866.88;;;6.20
79053;BMP280;68451;49.510;6.026;2024-02-26T05:27:48;95867.41;;;6.22
79053;BMP280;68451;49.510;6.026;2024-02-26T05:29:50;95871.81;;;6.21
79053;BMP280;68451;49.510;6.026;2024-02-26T05:31:53;95867.22;;;6.28
79053;BMP280;68451;49.510;6.026;2024-02-26T05:33:55;95866.72;;;6.32
79053;BMP280;68451;49.510;6.026;2024-02-26T05:35:57;95866.50;;;6.33
79053;BMP280;68451;49.510;6.026;2024-02-26T05:38:05;95875.56;;;6.36
79053;BMP280;68451;49.510;6.026;2024-02-26T05:40:07;95871.41;;;6.35
79053;BMP280;68451;49.510;6.026;2024-02-26T05:42:09;95877.66;;;6.39
79053;BMP280;68451;49.510;6.026;2024-02-26T05:44:11;95878.75;;;6.43
79053;BMP280;68451;49.510;6.026;2024-02-26T05:46:12;95879.50;;;6.38
79053;BMP280;68451;49.510;6.026;2024-02-26T05:48:14;95884.41;;;6.40
79053;BMP280;68451;49.510;6.026;2024-02-26T05:50:16;95883.91;;;6.38
79053;BMP280;68451;49.510;6.026;2024-02-26T05:52:18;95890.94;;;6.42
79053;BMP280;68451;49.510;6.026;2024-02-26T05:54:20;95881.88;;;6.45
79053;BMP280;68451;49.510;6.026;2024-02-26T05:56:22;95892.47;;;6.43
79053;BMP280;68451;49.510;6.026;2024-02-26T05:58:24;95898.44;;;6.44
79053;BMP280;68451;49.510;6.026;2024-02-26T06:00:25;95897.91;;;6.42
79053;BMP280;68451;49.510;6.026;2024-02-26T06:02:27;95897.31;;;6.35
79053;BMP280;68451;49.510;6.026;2024-02-26T06:04:29;95898.66;;;6.37
79053;BMP280;68451;49.510;6.026;2024-02-26T06:06:31;95910.78;;;6.32
79053;BMP280;68451;49.510;6.026;2024-02-26T06:08:33;95909.97;;;6.31
79053;BMP280;68451;49.510;6.026;2024-02-26T06:10:35;95913.41;;;6.37
79053;BMP280;68451;49.510;6.026;2024-02-26T06:12:36;95913.94;;;6.39
79053;BMP280;68451;49.510;6.026;2024-02-26T06:14:38;95910.81;;;6.37
79053;BMP280;68451;49.510;6.026;2024-02-26T06:16:40;95912.63;;;6.36
79053;BMP280;68451;49.510;6.026;2024-02-26T06:18:42;95923.00;;;6.36
79053;BMP280;68451;49.510;6.026;2024-02-26T06:20:43;95914.44;;;6.36
79053;BMP280;68451;49.510;6.026;2024-02-26T06:22:46;95920.41;;;6.36
79053;BMP280;68451;49.510;6.026;2024-02-26T06:24:48;95923.28;;;6.40
79053;BMP280;68451;49.510;6.026;2024-02-26T06:26:50;95928.47;;;6.40
79053;BMP280;68451;49.510;6.026;2024-02-26T06:28:51;95931.59;;;6.42
79053;BMP280;68451;49.510;6.026;2024-02-26T06:30:54;95935.22;;;6.41
79053;BMP280;68451;49.510;6.026;2024-02-26T06:32:55;95940.97;;;6.43
79053;BMP280;68451;49.510;6.026;2024-02-26T06:34:57;95939.63;;;6.40
79053;BMP280;68451;49.510;6.026;2024-02-26T06:36:59;95947.16;;;6.42
79053;BMP280;68451;49.510;6.026;2024-02-26T06:39:01;95957.75;;;6.40
79053;BMP280;68451;49.510;6.026;2024-02-26T06:41:03;95947.94;;;6.42
79053;BMP280;68451;49.510;6.026;2024-02-26T06:43:05;95952.88;;;6.44
79053;BMP280;68451;49.510;6.026;2024-02-26T06:45:07;95962.75;;;6.47
79053;BMP280;68451;49.510;6.026;2024-02-26T06:47:09;95956.06;;;6.51
79053;BMP280;68451;49.510;6.026;2024-02-26T06:49:11;95959.69;;;6.50
79053;BMP280;68451;49.510;6.026;2024-02-26T06:51:13;95958.88;;;6.49
79053;BMP280;68451;49.510;6.026;2024-02-26T06:53:15;95967.50;;;6.55
79053;BMP280;68451;49.510;6.026;2024-02-26T06:55:17;95958.94;;;6.54
79053;BMP280;68451;49.510;6.026;2024-02-26T06:57:19;95968.59;;;6.59
79053;BMP280;68451;49.510;6.026;2024-02-26T06:59:21;95969.09;;;6.61
79053;BMP280;68451;49.510;6.026;2024-02-26T07:01:25;95980.75;;;6.58
79053;BMP280;68451;49.510;6.026;2024-02-26T07:03:27;95975.34;;;6.60
79053;BMP280;68451;49.510;6.026;2024-02-26T07:05:29;95985.16;;;6.58
79053;BMP280;68451;49.510;6.026;2024-02-26T07:07:30;95988.28;;;6.60
79053;BMP280;68451;49.510;6.026;2024-02-26T07:09:32;95991.69;;;6.60
79053;BMP280;68451;49.510;6.026;2024-02-26T07:11:34;95992.44;;;6.61
79053;BMP280;68451;49.510;6.026;2024-02-26T07:13:35;95999.44;;;6.60
79053;BMP280;68451;49.510;6.026;2024-02-26T07:15:37;96001.84;;;6.67
79053;BMP280;68451;49.510;6.026;2024-02-26T07:17:39;96011.97;;;6.68
79053;BMP280;68451;49.510;6.026;2024-02-26T07:19:48;96015.88;;;6.71
79053;BMP280;68451;49.510;6.026;2024-02-26T07:21:50;96018.22;;;6.72
79053;BMP280;68451;49.510;6.026;2024-02-26T07:23:52;96025.00;;;6.73
79053;BMP280;68451;49.510;6.026;2024-02-26T07:25:53;96041.38;;;6.79
79053;BMP280;68451;49.510;6.026;2024-02-26T07:27:55;96026.00;;;6.72
79053;BMP280;68451;49.510;6.026;2024-02-26T07:29:57;96039.22;;;6.71
79053;BMP280;68451;49.510;6.026;2024-02-26T07:31:59;96036.38;;;6.72
79053;BMP280;68451;49.510;6.026;2024-02-26T07:34:01;96039.75;;;6.73
79053;BMP280;68451;49.510;6.026;2024-02-26T07:36:03;96044.94;;;6.73
79053;BMP280;68451;49.510;6.026;2024-02-26T07:38:05;96051.16;;;6.72
79053;BMP280;68451;49.510;6.026;2024-02-26T07:40:08;96057.38;;;6.71
79053;BMP280;68451;49.510;6.026;2024-02-26T07:42:09;96067.72;;;6.71
79053;BMP280;68451;49.510;6.026;2024-02-26T07:44:11;96068.34;;;6.78
79053;BMP280;68451;49.510;6.026;2024-02-26T07:46:13;96065.19;;;6.76
79053;BMP280;68451;49.510;6.026;2024-02-26T07:48:15;96066.28;;;6.80
79053;BMP280;68451;49.510;6.026;2024-02-26T07:50:17;96069.59;;;6.75
79053;BMP280;68451;49.510;6.026;2024-02-26T07:52:19;96069.59;;;6.75
79053;BMP280;68451;49.510;6.026;2024-02-26T07:54:20;96062.38;;;6.78
79053;BMP280;68451;49.510;6.026;2024-02-26T07:56:22;96074.06;;;6.80
79053;BMP280;68451;49.510;6.026;2024-02-26T07:58:24;96066.56;;;6.84
79053;BMP280;68451;49.510;6.026;2024-02-26T08:00:25;96071.53;;;6.85
79053;BMP280;68451;49.510;6.026;2024-02-26T08:02:27;96066.88;;;6.87
79053;BMP280;68451;49.510;6.026;2024-02-26T08:04:30;96066.09;;;6.87
79053;BMP280;68451;49.510;6.026;2024-02-26T08:06:32;96072.06;;;6.87
79053;BMP280;68451;49.510;6.026;2024-02-26T08:08:38;96072.59;;;6.89
79053;BMP280;68451;49.510;6.026;2024-02-26T08:10:40;96067.69;;;6.93
79053;BMP280;68451;49.510;6.026;2024-02-26T08:12:41;96068.25;;;6.95
79053;BMP280;68451;49.510;6.026;2024-02-26T08:14:43;96070.91;;;7.00
79053;BMP280;68451;49.510;6.026;2024-02-26T08:16:45;96073.22;;;7.01
79053;BMP280;68451;49.510;6.026;2024-02-26T08:18:47;96074.75;;;6.97
79053;BMP280;68451;49.510;6.026;2024-02-26T08:20:48;96077.63;;;7.01
79053;BMP280;68451;49.510;6.026;2024-02-26T08:22:50;96071.44;;;7.02
79053;BMP280;68451;49.510;6.026;2024-02-26T08:24:52;96069.38;;;7.04
79053;BMP280;68451;49.510;6.026;2024-02-26T08:26:54;96082.16;;;7.10
79053;BMP280;68451;49.510;6.026;2024-02-26T08:28:56;96093.56;;;7.09
79053;BMP280;68451;49.510;6.026;2024-02-26T08:30:58;96082.16;;;7.10
79053;BMP280;68451;49.510;6.026;2024-02-26T08:33:00;96083.22;;;7.14
79053;BMP280;68451;49.510;6.026;2024-02-26T08:35:02;96085.34;;;7.17
79053;BMP280;68451;49.510;6.026;2024-02-26T08:37:04;96089.53;;;7.24
79053;BMP280;68451;49.510;6.026;2024-02-26T08:39:07;96088.00;;;7.28
79053;BMP280;68451;49.510;6.026;2024-02-26T08:41:10;96089.59;;;7.29
79053;BMP280;68451;49.510;6.026;2024-02-26T08:43:12;96088.63;;;7.35
79053;BMP280;68451;49.510;6.026;2024-02-26T08:45:13;96086.53;;;7.37
79053;BMP280;68451;49.510;6.026;2024-02-26T08:47:15;96088.63;;;7.35
79053;BMP280;68451;49.510;6.026;2024-02-26T08:49:17;96093.31;;;7.38
79053;BMP280;68451;49.510;6.026;2024-02-26T08:51:19;96096.19;;;7.41
79053;BMP280;68451;49.510;6.026;2024-02-26T08:53:21;96088.16;;;7.43
79053;BMP280;68451;49.510;6.026;2024-02-26T08:55:28;96096.72;;;7.43
79053;BMP280;68451;49.510;6.026;2024-02-26T08:57:30;96108.44;;;7.46
79053;BMP280;68451;49.510;6.026;2024-02-26T08:59:34;96109.94;;;7.42
79053;BMP280;68451;49.510;6.026;2024-02-26T09:01:35;96106.31;;;7.43
79053;BMP280;68451;49.510;6.026;2024-02-26T09:03:37;96101.56;;;7.61
79053;BMP280;68451;49.510;6.026;2024-02-26T09:05:39;96113.75;;;7.61
79053;BMP280;68451;49.510;6.026;2024-02-26T09:07:41;96129.63;;;7.64
79053;BMP280;68451;49.510;6.026;2024-02-26T09:09:43;96124.69;;;7.63
79053;BMP280;68451;49.510;6.026;2024-02-26T09:11:44;96128.56;;;7.60
79053;BMP280;68451;49.510;6.026;2024-02-26T09:13:46;96127.56;;;7.67
79053;BMP280;68451;49.510;6.026;2024-02-26T09:15:48;96128.84;;;7.64
79053;BMP280;68451;49.510;6.026;2024-02-26T09:17:50;96129.09;;;7.62
79053;BMP280;68451;49.510;6.026;2024-02-26T09:19:53;96122.63;;;7.65
79053;BMP280;68451;49.510;6.026;2024-02-26T09:21:55;96131.56;;;7.79
79053;BMP280;68451;49.510;6.026;2024-02-26T09:23:59;96130.31;;;7.87
79053;BMP280;68451;49.510;6.026;2024-02-26T09:26:00;96130.81;;;7.84
79053;BMP280;68451;49.510;6.026;2024-02-26T09:28:02;96142.47;;;7.76
79053;BMP280;68451;49.510;6.026;2024-02-26T09:30:05;96154.16;;;7.79
79053;BMP280;68451;49.510;6.026;2024-02-26T09:32:06;96147.66;;;7.76
79053;BMP280;68451;49.510;6.026;2024-02-26T09:34:08;96145.88;;;7.82
79053;BMP280;68451;49.510;6.026;2024-02-26T09:36:10;96136.94;;;7.68
79053;BMP280;68451;49.510;6.026;2024-02-26T09:38:12;96155.47;;;7.81
79053;BMP280;68451;49.510;6.026;2024-02-26T09:40:15;96158.59;;;7.83
79053;BMP280;68451;49.510;6.026;2024-02-26T09:42:18;96163.31;;;7.86
79053;BMP280;68451;49.510;6.026;2024-02-26T09:44:20;96164.09;;;7.87
79053;BMP280;68451;49.510;6.026;2024-02-26T09:46:23;96167.72;;;7.86
79053;BMP280;68451;49.510;6.026;2024-02-26T09:48:25;96170.66;;;7.94
79053;BMP280;68451;49.510;6.026;2024-02-26T09:50:27;96171.72;;;7.98
79053;BMP280;68451;49.510;6.026;2024-02-26T09:52:28;96169.19;;;8.08
79053;BMP280;68451;49.510;6.026;2024-02-26T09:54:32;96174.09;;;8.05
79053;BMP280;68451;49.510;6.026;2024-02-26T09:56:35;96175.91;;;8.04
79053;BMP280;68451;49.510;6.026;2024-02-26T09:58:39;96180.19;;;8.16
79053;BMP280;68451;49.510;6.026;2024-02-26T10:00:42;96191.09;;;8.18
79053;BMP280;68451;49.510;6.026;2024-02-26T10:02:48;96186.69;;;8.18
79053;BMP280;68451;49.510;6.026;2024-02-26T10:04:50;96191.69;;;8.25
79053;BMP280;68451;49.510;6.026;2024-02-26T10:06:53;96196.16;;;8.29
79053;BMP280;68451;49.510;6.026;2024-02-26T10:08:56;96201.88;;;8.31
79053;BMP280;68451;49.510;6.026;2024-02-26T10:11:00;96203.72;;;8.36
79053;BMP280;68451;49.510;6.026;2024-02-26T10:13:03;96203.72;;;8.36
79053;BMP280;68451;49.510;6.026;2024-02-26T10:15:10;96209.22;;;8.39
79053;BMP280;68451;49.510;6.026;2024-02-26T10:17:12;96208.50;;;8.49
79053;BMP280;68451;49.510;6.026;2024-02-26T10:19:24;96211.41;;;8.58
79053;BMP280;68451;49.510;6.026;2024-02-26T10:21:26;96219.22;;;8.58
79053;BMP280;68451;49.510;6.026;2024-02-26T10:23:28;96216.13;;;8.61
79053;BMP280;68451;49.510;6.026;2024-02-26T10:25:30;96214.81;;;8.63
79053;BMP280;68451;49.510;6.026;2024-02-26T10:27:35;96213.84;;;8.69
79053;BMP280;68451;49.510;6.026;2024-02-26T10:29:37;96213.84;;;8.69
79053;BMP280;68451;49.510;6.026;2024-02-26T10:31:41;96216.91;;;8.61
79053;BMP280;68451;49.510;6.026;2024-02-26T10:33:43;96218.00;;;8.70
79053;BMP280;68451;49.510;6.026;2024-02-26T10:35:49;96230.75;;;8.72
79053;BMP280;68451;49.510;6.026;2024-02-26T10:37:51;96224.75;;;8.71
79053;BMP280;68451;49.510;6.026;2024-02-26T10:39:53;96222.94;;;8.72
79053;BMP280;68451;49.510;6.026;2024-02-26T10:41:54;96225.81;;;8.75
79053;BMP280;68451;49.510;6.026;2024-02-26T10:43:56;96234.16;;;8.77
79053;BMP280;68451;49.510;6.026;2024-02-26T10:45:58;96227.38;;;8.76
79053;BMP280;68451;49.510;6.026;2024-02-26T10:48:00;96233.09;;;8.73
79053;BMP280;68451;49.510;6.026;2024-02-26T10:50:02;96237.75;;;8.71
79053;BMP280;68451;49.510;6.026;2024-02-26T10:52:04;96234.66;;;8.69
79053;BMP280;68451;49.510;6.026;2024-02-26T10:54:08;96243.47;;;8.68
79053;BMP280;68451;49.510;6.026;2024-02-26T10:56:12;96240.38;;;8.71
79053;BMP280;68451;49.510;6.026;2024-02-26T10:58:15;96244.53;;;8.72
79053;BMP280;68451;49.510;6.026;2024-02-26T11:00:18;96249.50;;;8.74
79053;BMP280;68451;49.510;6.026;2024-02-26T11:02:20;96254.16;;;8.72
79053;BMP280;68451;49.510;6.026;2024-02-26T11:04:22;96265.06;;;8.69
79053;BMP280;68451;49.510;6.026;2024-02-26T11:06:24;96272.09;;;8.68
79053;BMP280;68451;49.510;6.026;2024-02-26T11:08:27;96275.94;;;8.61
79053;BMP280;68451;49.510;6.026;2024-02-26T11:10:29;96279.81;;;8.58
79053;BMP280;68451;49.510;6.026;2024-02-26T11:12:32;96275.94;;;8.61
79053;BMP280;68451;49.510;6.026;2024-02-26T11:14:34;96294.94;;;8.61
79053;BMP280;68451;49.510;6.026;2024-02-26T11:16:37;96294.44;;;8.64
79053;BMP280;68451;49.510;6.026;2024-02-26T11:18:40;96292.63;;;8.65
79053;BMP280;68451;49.510;6.026;2024-02-26T11:20:43;96288.53;;;8.74
79053;BMP280;68451;49.510;6.026;2024-02-26T11:22:46;96290.94;;;8.85
79053;BMP280;68451;49.510;6.026;2024-02-26T11:24:48;96293.06;;;8.93
79053;BMP280;68451;49.510;6.026;2024-02-26T11:26:51;96297.78;;;8.96
79053;BMP280;68451;49.510;6.026;2024-02-26T11:29:00;96291.81;;;9.01
79053;BMP280;68451;49.510;6.026;2024-02-26T11:31:03;96280.91;;;9.04
79053;BMP280;68451;49.510;6.026;2024-02-26T11:33:06;96288.19;;;9.07
79053;BMP280;68451;49.510;6.026;2024-02-26T11:35:09;96290.56;;;9.09
79053;BMP280;68451;49.510;6.026;2024-02-26T11:37:12;96291.34;;;9.09
79053;BMP280;68451;49.510;6.026;2024-02-26T11:39:14;96291.34;;;9.09
79053;BMP280;68451;49.510;6.026;2024-02-26T11:41:18;96291.06;;;9.11
79053;BMP280;68451;49.510;6.026;2024-02-26T11:43:23;96287.16;;;9.08
79053;BMP280;68451;49.510;6.026;2024-02-26T11:47:55;96291.78;;;8.96
79053;BMP280;68451;49.510;6.026;2024-02-26T11:49:57;96287.81;;;8.83
79053;BMP280;68451;49.510;6.026;2024-02-26T11:51:59;96286.28;;;8.87
79053;BMP280;68451;49.510;6.026;2024-02-26T11:54:02;96284.72;;;8.91
79053;BMP280;68451;49.510;6.026;2024-02-26T11:58:14;96286.84;;;8.99
79053;BMP280;68451;49.510;6.026;2024-02-26T12:00:16;96276.75;;;9.08
79053;BMP280;68451;49.510;6.026;2024-02-26T12:02:40;96282.50;;;9.10
79053;BMP280;68451;49.510;6.026;2024-02-26T12:04:42;96290.00;;;9.07